Time;durP1;ratioP1;P1;durP2;ratioP2;P2;SDS_P1;SDS_P2;PMS_P1;PMS_P2;Temp;Humidity;BMP_temperature;BMP_pressure;BME280_temperature;BME280_humidity;BME280_pressure;Samples;Min_cycle;Max_cycle;Signal;HPM_P1;HPM_P2
2023/06/06 00:01:41;;;;;;;5.55;3.58;;;;;;;11.73;57.83;100214.27;1449006;95;21098;-69
2023/06/06 00:04:08;;;;;;;7.33;3.40;;;;;;;11.71;58.00;100217.43;1505019;94;21604;-68
2023/06/06 00:06:35;;;;;;;6.50;3.22;;;;;;;11.69;58.12;100217.95;1510325;92;21630;-68
2023/06/06 00:09:05;;;;;;;5.57;3.13;;;;;;;11.58;58.40;100196.64;1514371;94;21105;-69
2023/06/06 00:11:32;;;;;;;5.85;2.83;;;;;;;11.69;58.42;100220.56;1509509;94;21810;-69
2023/06/06 00:14:00;;;;;;;6.03;2.92;;;;;;;11.67;58.63;100211.08;1491274;94;20993;-69
2023/06/06 00:16:32;;;;;;;4.97;3.33;;;;;;;11.68;58.85;100212.34;1507548;94;21194;-70
2023/06/06 00:18:57;;;;;;;8.10;3.15;;;;;;;11.66;58.96;100208.93;1472371;96;21109;-69
2023/06/06 00:21:24;;;;;;;5.95;3.02;;;;;;;11.65;59.04;100209.86;1511254;94;21134;-69
2023/06/06 00:23:52;;;;;;;;;;;;;;;11.65;59.33;100211.17;1511881;94;21132;-69
2023/06/06 00:26:20;;;;;;;5.17;3.12;;;;;;;11.65;59.96;100213.78;1490361;94;20167;-69
2023/06/06 00:28:46;;;;;;;6.03;3.12;;;;;;;11.64;59.72;100204.22;1516097;93;21673;-69
2023/06/06 00:31:13;;;;;;;5.30;2.98;;;;;;;11.67;60.03;100201.92;1508632;93;21045;-69
2023/06/06 00:33:39;;;;;;;4.97;2.77;;;;;;;11.66;59.85;100202.39;1470615;96;21074;-67
2023/06/06 00:36:07;;;;;;;9.80;3.55;;;;;;;11.65;59.95;100203.32;1510366;93;21817;-67
2023/06/06 00:38:36;;;;;;;4.67;2.65;;;;;;;11.67;60.08;100206.69;1504217;94;20999;-66
2023/06/06 00:41:05;;;;;;;6.85;3.52;;;;;;;11.69;60.15;100203.56;1473009;96;21078;-66
2023/06/06 00:43:30;;;;;;;7.03;3.10;;;;;;;11.70;60.17;100196.09;1508831;94;21577;-66
2023/06/06 00:45:57;;;;;;;7.10;3.20;;;;;;;11.70;60.23;100194.78;1510597;94;21480;-66
2023/06/06 00:48:26;;;;;;;5.90;2.47;;;;;;;11.70;60.39;100193.48;1507849;94;21073;-67
2023/06/06 00:50:56;;;;;;;9.05;2.98;;;;;;;11.70;60.39;100193.48;1506194;94;21108;-67
2023/06/06 00:53:25;;;;;;;5.53;2.90;;;;;;;11.71;60.50;100196.97;1512836;92;21101;-66
2023/06/06 00:55:52;;;;;;;6.50;3.02;;;;;;;11.71;60.57;100197.81;1468916;96;21057;-66
2023/06/06 00:58:21;;;;;;;6.37;2.80;;;;;;;11.71;60.75;100195.20;1473843;96;21080;-66
2023/06/06 01:00:48;;;;;;;6.62;2.90;;;;;;;11.71;60.75;100195.20;1474493;96;21122;-66
2023/06/06 01:03:15;;;;;;;5.58;2.80;;;;;;;11.72;60.71;100194.27;1473573;96;21131;-66
2023/06/06 01:05:42;;;;;;;6.50;2.67;;;;;;;11.74;60.82;100192.44;1470197;96;21090;-66
2023/06/06 01:08:12;;;;;;;5.25;2.80;;;;;;;11.74;60.88;100192.44;1448936;97;21055;-66
2023/06/06 01:10:42;;;;;;;7.65;3.20;;;;;;;11.75;60.88;100193.28;1448762;97;21122;-66
2023/06/06 01:13:28;;;;;;;6.53;3.22;;;;;;;11.76;60.90;100193.23;1447296;97;21848;-66
2023/06/06 01:16:07;;;;;;;7.33;3.50;;;;;;;11.78;60.95;100198.38;1477166;96;21162;-66
2023/06/06 01:18:37;;;;;;;10.80;3.52;;;;;;;11.80;61.03;100195.24;1475472;96;21052;-66
2023/06/06 01:21:05;;;;;;;5.92;3.42;;;;;;;11.89;61.12;100208.40;1476266;96;21081;-66
2023/06/06 01:23:31;;;;;;;12.05;3.72;;;;;;;11.89;61.12;100208.40;1507889;94;21110;-67
2023/06/06 01:26:00;;;;;;;4.60;3.05;;;;;;;11.91;61.14;100206.57;1508150;94;21462;-67
2023/06/06 01:28:27;;;;;;;6.12;3.45;;;;;;;11.91;61.05;100202.65;1506064;94;21089;-66
2023/06/06 01:30:54;;;;;;;6.28;3.00;;;;;;;11.85;60.96;100196.77;1505894;94;21546;-67
2023/06/06 01:33:30;;;;;;;7.87;3.47;;;;;;;11.79;60.97;100193.09;1473691;96;21049;-67
2023/06/06 01:36:06;;;;;;;6.00;2.92;;;;;;;11.73;61.02;100202.49;1506719;94;22508;-66
2023/06/06 01:38:38;;;;;;;5.45;2.87;;;;;;;11.67;61.02;100198.00;1507731;94;21035;-66
2023/06/06 01:41:07;;;;;;;6.92;3.05;;;;;;;11.57;61.12;100198.41;1506191;94;21960;-66
2023/06/06 01:43:36;;;;;;;6.08;3.60;;;;;;;11.49;61.18;100195.75;1508291;94;21033;-67
2023/06/06 01:46:03;;;;;;;5.85;2.95;;;;;;;11.44;61.40;100198.55;1470920;96;21038;-66
2023/06/06 01:48:32;;;;;;;4.92;3.05;;;;;;;11.41;61.41;100197.38;1504433;94;21086;-66
2023/06/06 01:51:03;;;;;;;5.90;3.02;;;;;;;11.38;61.50;100200.97;1502945;94;21107;-67
2023/06/06 01:53:27;;;;;;;6.62;2.92;;;;;;;11.39;61.63;100201.35;1476060;94;21148;-66
2023/06/06 01:55:55;;;;;;;5.10;2.90;;;;;;;11.41;61.68;100192.99;1455034;97;21451;-66
2023/06/06 01:58:22;;;;;;;5.75;2.77;;;;;;;11.45;61.64;100190.24;1506780;94;22365;-66
2023/06/06 02:00:52;;;;;;;4.62;2.95;;;;;;;11.48;61.71;100196.64;1503230;94;21056;-66
2023/06/06 02:03:17;;;;;;;4.62;2.87;;;;;;;11.50;61.72;100188.28;1476974;96;21083;-66
2023/06/06 02:05:44;;;;;;;6.40;2.40;;;;;;;11.51;61.73;100189.97;1477382;95;21454;-66
2023/06/06 02:08:11;;;;;;;5.27;2.83;;;;;;;11.52;61.78;100187.30;1477929;95;21258;-67
2023/06/06 02:10:37;;;;;;;6.62;2.75;;;;;;;11.53;61.90;100185.53;1476570;95;21067;-66
2023/06/06 02:13:06;;;;;;;5.75;3.12;;;;;;;11.55;61.92;100183.70;1478521;95;21189;-66
2023/06/06 02:15:32;;;;;;;7.28;3.10;;;;;;;11.57;61.91;100180.58;1476165;95;21567;-66
2023/06/06 02:17:59;;;;;;;4.12;2.58;;;;;;;11.54;61.92;100179.37;1478232;95;21677;-66
2023/06/06 02:20:26;;;;;;;4.85;3.00;;;;;;;11.56;61.94;100182.78;1476488;95;21158;-66
2023/06/06 02:22:56;;;;;;;6.08;2.80;;;;;;;11.57;62.00;100181.88;1452322;96;21048;-66
2023/06/06 02:25:23;;;;;;;3.50;2.60;;;;;;;11.56;62.05;100178.86;1474712;94;21595;-66
2023/06/06 02:27:53;;;;;;;5.15;2.62;;;;;;;11.55;62.13;100178.48;1456144;97;21631;-66
2023/06/06 02:30:24;;;;;;;5.08;2.60;;;;;;;11.59;62.13;100180.02;1451883;97;21146;-66
2023/06/06 02:32:51;;;;;;;5.40;2.60;;;;;;;11.62;62.22;100183.81;1475445;96;21097;-66
2023/06/06 02:35:21;;;;;;;4.72;2.80;;;;;;;11.63;62.23;100179.83;1453563;96;21035;-65
2023/06/06 02:37:47;;;;;;;5.25;3.05;;;;;;;11.64;62.25;100185.91;1447541;97;21127;-66
2023/06/06 02:40:14;;;;;;;5.60;2.58;;;;;;;11.65;62.25;100174.55;1458643;97;21484;-67
2023/06/06 02:42:42;;;;;;;3.95;2.72;;;;;;;11.64;62.31;100173.67;1447726;97;21102;-66
2023/06/06 02:45:13;;;;;;;4.92;2.75;;;;;;;11.67;62.40;100174.00;1453569;97;21119;-67
2023/06/06 02:47:39;;;;;;;5.67;2.85;;;;;;;11.69;62.43;100174.78;1455577;97;21326;-67
2023/06/06 02:50:07;;;;;;;5.47;2.42;;;;;;;11.72;62.44;100177.73;1452678;97;21782;-67
2023/06/06 02:52:35;;;;;;;3.83;2.33;;;;;;;11.76;62.53;100173.61;1449021;97;21055;-67
2023/06/06 02:55:01;;;;;;;4.30;2.45;;;;;;;11.81;62.50;100175.53;1450632;97;21198;-66
2023/06/06 02:57:30;;;;;;;4.12;2.55;;;;;;;11.86;62.57;100176.21;1471297;96;21104;-66
2023/06/06 02:59:59;;;;;;;4.83;2.67;;;;;;;11.91;62.64;100169.47;1508835;94;21051;-67
2023/06/06 03:02:27;;;;;;;4.85;2.65;;;;;;;11.97;62.61;100174.89;1510273;94;21020;-66
2023/06/06 03:04:55;;;;;;;4.28;2.60;;;;;;;12.01;62.70;100171.20;1506569;94;21548;-67
2023/06/06 03:07:22;;;;;;;3.62;2.45;;;;;;;12.07;62.68;100167.85;1471265;96;21034;-67
2023/06/06 03:09:48;;;;;;;5.87;2.62;;;;;;;12.11;62.60;100169.86;1507605;94;21148;-67
2023/06/06 03:12:14;;;;;;;3.92;2.35;;;;;;;12.20;62.44;100165.50;1506847;94;21121;-67
2023/06/06 03:14:42;;;;;;;4.50;2.58;;;;;;;12.20;62.44;100165.50;1509077;94;21110;-66
2023/06/06 03:17:09;;;;;;;5.92;2.65;;;;;;;12.23;62.47;100174.52;1470488;96;21137;-67
2023/06/06 03:19:38;;;;;;;4.50;2.60;;;;;;;12.21;62.49;100158.05;1507549;94;21089;-67
2023/06/06 03:22:05;;;;;;;8.45;2.75;;;;;;;12.14;62.35;100151.39;1470894;96;21529;-66
2023/06/06 03:24:33;;;;;;;7.55;3.05;;;;;;;12.25;62.37;100167.44;1508732;94;21095;-66
2023/06/06 03:27:05;;;;;;;6.33;2.65;;;;;;;12.26;62.46;100169.13;1507471;94;21094;-67
2023/06/06 03:29:34;;;;;;;5.83;2.40;;;;;;;12.34;62.62;100160.92;1505164;94;21040;-66
2023/06/06 03:32:01;;;;;;;6.25;2.67;;;;;;;12.34;62.62;100160.92;1504879;94;21103;-66
2023/06/06 03:34:29;;;;;;;2.60;2.20;;;;;;;12.41;62.51;100164.12;1510423;92;21193;-65
2023/06/06 03:36:58;;;;;;;7.40;2.55;;;;;;;12.47;62.55;100162.51;1506769;94;21130;-66
2023/06/06 03:39:26;;;;;;;6.92;2.15;;;;;;;12.47;62.51;100152.03;1508114;93;22428;-65
2023/06/06 03:41:52;;;;;;;3.85;2.47;;;;;;;12.55;62.50;100153.82;1470044;96;21463;-65
2023/06/06 03:44:26;;;;;;;7.12;1.98;;;;;;;12.68;62.52;100158.82;1507900;94;21071;-65
2023/06/06 03:46:54;;;;;;;23.92;4.60;;;;;;;12.76;62.52;100162.39;1450580;97;21137;-65
2023/06/06 03:49:23;;;;;;;20.43;4.17;;;;;;;12.87;62.66;100164.48;1471827;96;21862;-65
2023/06/06 03:51:52;;;;;;;15.30;3.17;;;;;;;12.96;62.61;100161.39;1507470;94;21163;-65
2023/06/06 03:54:30;;;;;;;10.95;2.98;;;;;;;13.06;62.59;100173.13;1507639;94;21155;-65
2023/06/06 03:57:02;;;;;;;4.30;2.52;;;;;;;13.18;62.41;100169.87;1477407;94;21238;-66
2023/06/06 03:59:34;;;;;;;6.85;2.60;;;;;;;13.29;62.34;100163.27;1499943;94;21133;-66
2023/06/06 04:01:59;;;;;;;3.60;2.00;;;;;;;13.26;62.23;100136.73;1502361;94;21227;-66
2023/06/06 04:04:40;;;;;;;58.30;6.17;;;;;;;13.53;62.12;100163.31;1501189;94;21775;-65
2023/06/06 04:06:58;;;;;;;42.05;4.95;;;;;;;13.67;62.13;100158.66;1498543;94;21070;-65
2023/06/06 04:09:25;;;;;;;8.83;2.52;;;;;;;13.80;61.91;100160.98;1469700;96;21985;-65
2023/06/06 04:11:54;;;;;;;77.27;7.55;;;;;;;13.93;61.80;100159.88;1499983;93;21100;-66
2023/06/06 04:14:23;;;;;;;31.03;3.47;;;;;;;14.06;61.72;100153.03;1499561;94;21121;-66
2023/06/06 04:16:49;;;;;;;26.35;3.90;;;;;;;14.22;61.56;100157.42;1501168;94;21563;-66
2023/06/06 04:19:16;;;;;;;5.33;2.22;;;;;;;14.36;61.51;100152.25;1499859;93;21042;-66
2023/06/06 04:21:43;;;;;;;4.40;2.00;;;;;;;14.49;61.32;100157.20;1502145;94;21164;-66
2023/06/06 04:24:10;;;;;;;4.62;2.33;;;;;;;14.63;61.17;100149.04;1502379;94;21076;-66
2023/06/06 04:26:40;;;;;;;2.75;2.10;;;;;;;14.76;61.17;100142.15;1501644;94;21085;-66
2023/06/06 04:29:13;;;;;;;;;;;;;;;14.89;60.94;100148.36;1505806;93;21123;-66
2023/06/06 04:31:40;;;;;;;7.58;2.35;;;;;;;15.03;60.84;100148.03;1500583;94;20246;-66
2023/06/06 04:34:05;;;;;;;4.50;2.77;;;;;;;15.16;60.72;100142.43;1500374;94;21419;-66
2023/06/06 04:36:38;;;;;;;3.92;2.30;;;;;;;15.30;60.64;100145.08;1498343;94;21098;-66
2023/06/06 04:39:06;;;;;;;5.28;2.20;;;;;;;15.45;60.46;100148.08;1498457;94;21542;-66
2023/06/06 04:41:34;;;;;;;9.70;2.00;;;;;;;15.61;60.23;100151.11;1469918;96;21120;-65
2023/06/06 04:44:04;;;;;;;3.90;2.33;;;;;;;15.75;59.94;100151.14;1504689;94;21509;-66
2023/06/06 04:46:31;;;;;;;7.87;2.33;;;;;;;15.93;59.97;100146.98;1500641;94;21013;-66
2023/06/06 04:49:01;;;;;;;5.83;2.60;;;;;;;16.07;59.61;100148.27;1498727;94;21108;-65
2023/06/06 04:51:30;;;;;;;5.87;2.27;;;;;;;16.20;59.46;100141.28;1500982;93;21098;-65
2023/06/06 04:54:02;;;;;;;5.53;2.23;;;;;;;16.40;59.29;100145.27;1504008;94;21189;-65
2023/06/06 04:56:29;;;;;;;4.90;1.70;;;;;;;16.56;58.95;100150.39;1500204;94;21603;-64
2023/06/06 04:59:08;;;;;;;4.87;1.75;;;;;;;16.71;58.82;100145.42;1499004;94;21075;-64
2023/06/06 05:01:41;;;;;;;4.95;2.08;;;;;;;16.88;58.42;100146.13;1503764;93;21606;-64
2023/06/06 05:04:06;;;;;;;9.28;2.15;;;;;;;17.07;58.16;100153.19;1500788;94;21539;-64
2023/06/06 05:06:39;;;;;;;5.00;1.90;;;;;;;17.22;58.06;100144.25;1501344;94;20999;-64
2023/06/06 05:09:07;;;;;;;6.50;1.87;;;;;;;17.42;57.80;100144.64;1499725;94;21043;-64
2023/06/06 05:11:35;;;;;;;5.03;2.47;;;;;;;17.61;57.60;100142.90;1497962;94;21056;-63
2023/06/06 05:14:04;;;;;;;6.20;1.80;;;;;;;17.77;57.31;100136.08;1497548;94;21066;-65
2023/06/06 05:16:30;;;;;;;6.70;2.35;;;;;;;17.92;56.99;100136.33;1497877;94;21155;-64
2023/06/06 05:18:59;;;;;;;2.95;1.52;;;;;;;18.05;56.19;100133.18;1498354;94;21029;-61
2023/06/06 05:21:25;;;;;;;4.17;1.85;;;;;;;18.19;55.96;100134.00;1499052;94;21160;-63
2023/06/06 05:23:53;;;;;;;3.47;1.77;;;;;;;18.30;55.48;100136.70;1498837;94;21130;-65
2023/06/06 05:26:20;;;;;;;5.60;1.67;;;;;;;18.39;54.69;100128.09;1501273;94;21080;-63
2023/06/06 05:28:46;;;;;;;4.37;1.82;;;;;;;18.50;54.58;100128.14;1502503;94;21104;-65
2023/06/06 05:31:16;;;;;;;11.93;2.72;;;;;;;18.62;54.28;100125.55;1499540;94;21566;-64
2023/06/06 05:33:42;;;;;;;3.70;1.77;;;;;;;18.72;53.61;100125.23;1498873;94;21108;-65
2023/06/06 05:36:09;;;;;;;4.20;2.37;;;;;;;18.83;53.28;100123.98;1501109;94;22347;-67
2023/06/06 05:38:36;;;;;;;7.35;1.77;;;;;;;18.97;52.85;100126.42;1508240;94;21077;-67
2023/06/06 05:41:02;;;;;;;10.00;2.17;;;;;;;19.09;52.93;100123.80;1509572;94;21665;-66
2023/06/06 05:43:31;;;;;;;7.17;2.15;;;;;;;19.24;52.74;100121.33;1500634;94;21152;-62
2023/06/06 05:45:58;;;;;;;3.15;1.60;;;;;;;19.37;52.13;100120.71;1500702;94;21147;-65
2023/06/06 05:48:24;;;;;;;3.50;1.57;;;;;;;19.52;51.63;100125.77;1502971;94;21097;-65
2023/06/06 05:50:50;;;;;;;3.47;1.98;;;;;;;19.67;51.76;100127.27;1504946;94;21625;-65
2023/06/06 05:53:17;;;;;;;5.35;2.10;;;;;;;19.81;51.08;100124.36;1505836;94;21060;-65
2023/06/06 05:55:46;;;;;;;6.53;1.92;;;;;;;19.89;50.59;100129.90;1522882;92;21116;-64
2023/06/06 05:58:15;;;;;;;5.12;1.98;;;;;;;20.01;50.46;100132.05;1526329;92;21639;-65
2023/06/06 06:00:41;;;;;;;5.55;2.02;;;;;;;20.14;49.91;100133.24;1528662;92;21053;-65
2023/06/06 06:03:08;;;;;;;;;;;;;;;20.23;49.46;100128.52;1533649;92;21138;-67
2023/06/06 06:05:36;;;;;;;8.48;2.05;;;;;;;20.33;48.62;100132.11;1533361;92;20516;-67
2023/06/06 06:08:06;;;;;;;5.95;1.57;;;;;;;20.48;49.05;100135.80;1527595;92;21049;-67
2023/06/06 06:10:35;;;;;;;8.45;2.20;;;;;;;20.61;48.81;100128.52;1498961;94;21115;-66
2023/06/06 06:13:03;;;;;;;6.12;1.95;;;;;;;20.80;49.00;100135.80;1523870;93;21038;-65
2023/06/06 06:15:31;;;;;;;11.68;1.72;;;;;;;20.92;48.20;100133.92;1523249;93;21045;-65
2023/06/06 06:17:59;;;;;;;9.85;1.92;;;;;;;21.07;48.11;100137.96;1521489;93;21057;-64
2023/06/06 06:20:25;;;;;;;6.25;2.15;;;;;;;21.27;47.62;100135.42;1504709;93;21154;-65
2023/06/06 06:22:52;;;;;;;5.67;2.17;;;;;;;21.45;47.63;100131.20;1528023;93;21129;-64
2023/06/06 06:25:19;;;;;;;14.85;2.27;;;;;;;21.60;47.35;100131.72;1528964;93;21028;-63
2023/06/06 06:27:50;;;;;;;13.08;3.00;;;;;;;21.80;47.36;100135.29;1508191;93;21069;-63
2023/06/06 06:30:18;;;;;;;12.13;1.98;;;;;;;21.99;46.97;100132.70;1512179;93;21033;-64
2023/06/06 06:32:45;;;;;;;11.95;2.05;;;;;;;22.12;46.27;100137.28;1524876;93;21141;-64
2023/06/06 06:35:12;;;;;;;5.33;1.85;;;;;;;22.25;45.40;100132.22;1522074;93;21608;-64
2023/06/06 06:37:39;;;;;;;6.15;1.60;;;;;;;22.37;44.81;100140.41;1521482;93;21554;-65
2023/06/06 06:40:09;;;;;;;5.78;1.90;;;;;;;22.50;45.38;100139.66;1522925;93;21041;-65
2023/06/06 06:42:43;;;;;;;6.67;1.85;;;;;;;22.78;45.29;100131.83;1526303;93;21540;-64
2023/06/06 06:45:13;;;;;;;13.72;2.05;;;;;;;23.09;44.86;100135.67;1524730;93;21100;-67
2023/06/06 06:47:41;;;;;;;5.05;1.50;;;;;;;23.40;44.71;100134.47;1522187;93;21242;-65
2023/06/06 06:50:11;;;;;;;6.72;1.85;;;;;;;23.85;44.75;100129.75;1535746;93;21116;-63
2023/06/06 06:52:37;;;;;;;15.63;2.27;;;;;;;24.56;44.54;100133.53;1521837;92;21129;-70
2023/06/06 06:55:09;;;;;;;;;;;;;;;25.36;44.56;100133.52;1512109;93;21162;-64
2023/06/06 06:57:40;;;;;;;3.17;1.60;;;;;;;26.24;43.42;100130.55;1449735;96;20194;-64
2023/06/06 07:00:12;;;;;;;3.60;1.70;;;;;;;27.05;43.17;100137.00;1492448;94;21063;-64
2023/06/06 07:02:42;;;;;;;5.10;1.75;;;;;;;27.74;42.88;100124.80;1490954;95;21152;-63
2023/06/06 07:05:11;;;;;;;8.73;1.60;;;;;;;28.60;43.13;100128.91;1490897;93;21123;-67
2023/06/06 07:07:47;;;;;;;3.55;1.65;;;;;;;29.72;42.10;100125.83;1473982;95;21138;-64
2023/06/06 07:10:15;;;;;;;4.58;1.30;;;;;;;30.41;41.52;100124.04;1497311;93;21173;-65
2023/06/06 07:12:46;;;;;;;5.87;1.70;;;;;;;31.28;40.42;100119.39;1513462;91;21045;-65
2023/06/06 07:15:11;;;;;;;4.10;1.82;;;;;;;32.10;39.37;100125.36;1575217;89;21034;-64
2023/06/06 07:17:38;;;;;;;3.50;1.60;;;;;;;32.56;38.98;100124.64;1583913;89;21026;-65
2023/06/06 07:20:08;;;;;;;5.03;1.60;;;;;;;33.05;37.71;100126.64;1546360;90;21034;-65
2023/06/06 07:22:38;;;;;;;3.10;1.60;;;;;;;33.48;37.21;100131.05;1587030;89;21725;-65
2023/06/06 07:25:11;;;;;;;4.85;1.30;;;;;;;34.38;37.21;100135.70;1554055;90;21139;-65
2023/06/06 07:27:38;;;;;;;2.08;1.40;;;;;;;35.19;35.79;100132.18;1557849;90;21101;-65
2023/06/06 07:30:14;;;;;;;3.55;1.50;;;;;;;35.86;35.66;100138.55;1572617;89;21651;-71
2023/06/06 07:32:42;;;;;;;14.75;1.70;;;;;;;36.84;34.74;100133.00;1581464;89;21468;-68
2023/06/06 07:35:19;;;;;;;3.42;1.70;;;;;;;37.66;34.25;100136.25;1575823;89;21103;-67
2023/06/06 07:37:47;;;;;;;9.18;1.80;;;;;;;38.81;33.26;100128.31;1573196;89;21048;-69
2023/06/06 07:40:16;;;;;;;5.90;1.67;;;;;;;39.92;32.02;100127.98;1581158;89;22223;-67
2023/06/06 07:42:44;;;;;;;8.73;1.92;;;;;;;40.82;31.37;100124.21;1584087;89;21043;-69
2023/06/06 07:45:11;;;;;;;4.17;1.70;;;;;;;41.79;30.38;100124.74;1564452;90;21515;-70
2023/06/06 07:47:40;;;;;;;4.78;1.52;;;;;;;42.50;28.86;100130.16;1559446;90;21063;-68
2023/06/06 07:50:07;;;;;;;7.53;1.80;;;;;;;42.72;27.49;100123.83;1577268;89;20960;-70
2023/06/06 07:52:34;;;;;;;6.80;1.35;;;;;;;42.42;26.62;100121.91;1560106;90;21035;-68
2023/06/06 07:55:02;;;;;;;9.58;1.42;;;;;;;42.33;25.48;100118.89;1574324;89;21120;-71
2023/06/06 07:57:30;;;;;;;3.10;1.65;;;;;;;42.87;25.23;100115.58;1558234;90;21640;-69
2023/06/06 07:59:56;;;;;;;4.25;1.55;;;;;;;43.61;24.56;100113.75;1569223;90;21084;-71
2023/06/06 08:02:23;;;;;;;8.73;1.45;;;;;;;43.81;23.70;100116.41;1562674;90;21056;-66
2023/06/06 08:04:52;;;;;;;2.42;1.35;;;;;;;44.14;23.28;100111.27;1570571;90;21088;-66
2023/06/06 08:07:22;;;;;;;4.12;1.42;;;;;;;45.20;22.63;100109.25;1558944;90;21890;-66
2023/06/06 08:09:48;;;;;;;27.40;3.92;;;;;;;46.09;21.66;100109.47;1533264;92;21672;-66
2023/06/06 08:12:16;;;;;;;6.65;1.50;;;;;;;46.99;20.79;100114.87;1558712;89;21099;-68
2023/06/06 08:14:46;;;;;;;9.63;1.82;;;;;;;47.11;19.67;100112.44;1572638;90;21058;-66
2023/06/06 08:17:13;;;;;;;3.55;1.50;;;;;;;46.76;19.33;100113.92;1562162;90;21077;-67
2023/06/06 08:19:39;;;;;;;2.67;1.50;;;;;;;46.55;18.85;100110.67;1537980;90;21081;-66
2023/06/06 08:22:07;;;;;;;8.13;1.75;;;;;;;46.84;18.13;100107.70;1562649;90;21116;-70
2023/06/06 08:24:34;;;;;;;3.72;1.57;;;;;;;46.86;17.54;100106.27;1562895;90;21064;-69
2023/06/06 08:27:06;;;;;;;16.55;3.15;;;;;;;46.74;17.09;100107.31;1564587;90;21042;-68
2023/06/06 08:29:34;;;;;;;10.30;2.10;;;;;;;47.00;16.75;100106.28;1570974;90;21114;-69
2023/06/06 08:31:58;;;;;;;7.25;1.95;;;;;;;47.46;16.62;100110.10;1563475;90;21093;-69
2023/06/06 08:34:24;;;;;;;8.45;1.70;;;;;;;47.85;16.25;100098.45;1574908;90;21076;-68
2023/06/06 08:36:54;;;;;;;93.25;13.10;;;;;;;48.47;15.84;100100.55;1524294;91;21110;-67
2023/06/06 08:39:21;;;;;;;4.70;2.02;;;;;;;48.81;15.47;100098.55;1567970;90;21061;-68
2023/06/06 08:41:53;;;;;;;2.20;1.35;;;;;;;49.19;14.90;100093.92;1558649;90;21029;-68
2023/06/06 08:44:22;;;;;;;8.85;1.70;;;;;;;49.91;14.72;100096.72;1563006;90;21072;-68
2023/06/06 08:46:51;;;;;;;3.58;1.60;;;;;;;50.75;14.35;100086.75;1570624;90;21109;-74
2023/06/06 08:49:18;;;;;;;16.87;3.58;;;;;;;51.09;13.82;100090.53;1563973;90;21064;-68
2023/06/06 08:51:47;;;;;;;7.05;2.20;;;;;;;50.87;13.37;100091.59;1562690;90;21610;-69
2023/06/06 08:54:13;;;;;;;3.85;1.85;;;;;;;50.23;13.12;100094.62;1562794;90;21827;-67
2023/06/06 08:56:44;;;;;;;4.28;1.65;;;;;;;50.60;12.70;100086.70;1551405;90;21590;-69
2023/06/06 08:59:11;;;;;;;9.80;2.55;;;;;;;50.73;12.56;100088.48;1531602;92;21069;-67
2023/06/06 09:01:45;;;;;;;5.87;1.92;;;;;;;50.86;11.97;100088.59;1549526;91;21342;-67
2023/06/06 09:04:15;;;;;;;6.85;1.50;;;;;;;50.95;11.78;100086.56;1578623;89;21004;-67
2023/06/06 09:06:45;;;;;;;6.97;1.87;;;;;;;51.42;11.68;100083.73;1543439;91;21540;-66
2023/06/06 09:09:13;;;;;;;5.12;2.17;;;;;;;51.50;11.20;100078.68;1547080;91;21101;-68
2023/06/06 09:11:40;;;;;;;4.37;2.00;;;;;;;52.19;11.39;100080.67;1546784;91;21062;-69
2023/06/06 09:14:09;;;;;;;3.37;1.70;;;;;;;52.44;11.00;100079.59;1585654;89;21090;-68
2023/06/06 09:16:38;;;;;;;5.10;2.20;;;;;;;52.48;10.51;100073.55;1583328;89;21009;-67
2023/06/06 09:19:05;;;;;;;5.53;1.90;;;;;;;51.03;9.96;100084.34;1586583;89;21396;-68
2023/06/06 09:21:38;;;;;;;1.70;1.17;;;;;;;48.44;10.02;100076.27;1577692;88;21112;-68
2023/06/06 09:24:14;;;;;;;3.47;1.20;;;;;;;45.91;10.23;100075.80;1579181;89;21059;-69
2023/06/06 09:26:42;;;;;;;8.00;1.72;;;;;;;46.10;10.67;100075.22;1580000;89;21063;-69
2023/06/06 09:29:14;;;;;;;2.62;1.67;;;;;;;47.59;10.52;100069.70;1582854;88;21044;-67
2023/06/06 09:31:43;;;;;;;4.58;1.70;;;;;;;48.54;10.46;100072.42;1588658;88;21035;-68
2023/06/06 09:34:25;;;;;;;5.70;1.90;;;;;;;49.93;10.17;100073.63;1581295;89;22198;-68
2023/06/06 09:36:59;;;;;;;4.72;1.82;;;;;;;51.06;9.94;100072.55;1581312;89;21109;-68
2023/06/06 09:39:25;;;;;;;3.22;1.55;;;;;;;51.14;9.62;100070.30;1583960;89;21144;-67
2023/06/06 09:41:54;;;;;;;14.13;2.45;;;;;;;51.15;9.24;100076.12;1580243;89;21057;-69
2023/06/06 09:44:29;;;;;;;6.97;1.80;;;;;;;49.81;9.27;100076.84;1578956;89;21062;-68
2023/06/06 09:47:05;;;;;;;6.80;1.70;;;;;;;49.53;9.73;100072.15;1584188;89;21029;-70
2023/06/06 09:49:35;;;;;;;4.75;1.80;;;;;;;49.39;9.08;100071.72;1549089;90;21401;-73
2023/06/06 09:52:06;;;;;;;5.97;1.70;;;;;;;48.74;9.48;100070.50;1552044;90;21076;-71
2023/06/06 09:54:45;;;;;;;3.30;1.80;;;;;;;49.02;9.31;100066.97;1548085;90;21164;-70
2023/06/06 09:57:13;;;;;;;2.33;1.62;;;;;;;47.09;9.20;100066.34;1549517;90;21179;-70
2023/06/06 09:59:44;;;;;;;2.87;1.40;;;;;;;46.20;9.80;100063.20;1523838;91;22241;-68
2023/06/06 10:02:13;;;;;;;6.12;1.75;;;;;;;47.09;9.87;100067.72;1520821;92;21569;-70
2023/06/06 10:04:40;;;;;;;2.83;1.37;;;;;;;48.49;9.75;100062.28;1547307;91;21058;-69
2023/06/06 10:07:09;;;;;;;2.67;1.40;;;;;;;49.76;9.46;100059.77;1547325;90;21033;-71
2023/06/06 10:09:38;;;;;;;5.08;1.82;;;;;;;50.55;9.47;100059.09;1521953;92;21120;-68
2023/06/06 10:12:05;;;;;;;1.90;1.50;;;;;;;51.05;9.08;100057.03;1578245;89;21062;-69
2023/06/06 10:14:34;;;;;;;3.00;1.72;;;;;;;51.33;9.00;100057.37;1574464;89;21551;-69
2023/06/06 10:17:01;;;;;;;5.37;1.90;;;;;;;52.31;9.09;100065.38;1549393;89;21598;-68
2023/06/06 10:19:34;;;;;;;5.97;1.95;;;;;;;53.10;8.98;100056.89;1570669;89;21052;-72
2023/06/06 10:22:00;;;;;;;4.83;2.08;;;;;;;53.47;8.62;100055.44;1564334;90;21073;-70
2023/06/06 10:24:28;;;;;;;13.00;2.52;;;;;;;53.07;8.63;100050.63;1563859;90;21057;-70
2023/06/06 10:27:01;;;;;;;11.12;2.77;;;;;;;54.08;8.19;100051.04;1563903;90;21059;-67
2023/06/06 10:29:39;;;;;;;30.20;3.67;;;;;;;54.52;7.97;100053.81;1556589;90;21084;-66
2023/06/06 10:32:17;;;;;;;8.03;2.77;;;;;;;54.46;7.60;100049.67;1562647;90;21592;-70
2023/06/06 10:34:47;;;;;;;35.45;4.20;;;;;;;54.44;6.55;100053.41;1562578;90;21077;-66
2023/06/06 10:37:25;;;;;;;4.05;2.37;;;;;;;52.44;7.54;100050.34;1557076;90;21601;-68
2023/06/06 10:40:07;;;;;;;4.03;2.00;;;;;;;52.96;7.46;100055.23;1557392;90;21105;-69
2023/06/06 10:42:41;;;;;;;7.05;2.10;;;;;;;53.33;7.21;100048.81;1573753;89;21580;-70
2023/06/06 10:45:08;;;;;;;11.57;2.75;;;;;;;53.50;7.23;100041.58;1579135;89;21067;-68
2023/06/06 10:47:41;;;;;;;5.33;2.10;;;;;;;54.14;7.16;100037.62;1555956;90;21053;-69
2023/06/06 10:50:11;;;;;;;5.55;2.10;;;;;;;55.00;7.10;100043.42;1566393;90;21459;-72
2023/06/06 10:52:48;;;;;;;7.00;2.40;;;;;;;55.47;6.69;100041.08;1578438;89;21063;-70
2023/06/06 10:55:29;;;;;;;5.23;2.17;;;;;;;55.03;6.77;100044.09;1580024;89;20988;-71
2023/06/06 10:58:05;;;;;;;4.22;2.20;;;;;;;54.93;6.81;100040.41;1553740;90;21692;-70
2023/06/06 11:00:35;;;;;;;4.95;2.12;;;;;;;54.60;6.75;100036.05;1577982;90;22421;-70
2023/06/06 11:03:15;;;;;;;4.62;2.10;;;;;;;53.08;6.32;100027.13;1563401;90;21093;-69
2023/06/06 11:06:03;;;;;;;2.55;1.60;;;;;;;49.34;6.58;100021.95;1564357;90;21658;-70
2023/06/06 11:08:37;;;;;;;7.55;1.87;;;;;;;47.39;7.12;100026.70;1551281;90;21167;-70
2023/06/06 11:11:30;;;;;;;4.60;1.60;;;;;;;46.78;7.02;100025.48;1556119;90;21080;-71
2023/06/06 11:14:02;;;;;;;39.15;2.65;;;;;;;44.53;7.19;100024.52;1583199;89;21091;-69
2023/06/06 11:16:44;;;;;;;62.05;4.83;;;;;;;42.59;7.58;100020.06;1584284;89;21070;-66
2023/06/06 11:19:15;;;;;;;49.30;3.62;;;;;;;40.87;7.76;100014.73;1585434;89;21103;-68
2023/06/06 11:21:49;;;;;;;7.08;2.00;;;;;;;38.84;8.31;100021.37;1582550;89;21238;-67
2023/06/06 11:24:14;;;;;;;4.78;1.80;;;;;;;37.83;8.71;100015.88;1582721;89;21103;-67
2023/06/06 11:26:42;;;;;;;9.70;2.40;;;;;;;36.99;9.00;100013.60;1590911;89;21104;-69
2023/06/06 11:29:10;;;;;;;6.53;2.27;;;;;;;35.98;9.83;100014.96;1586285;89;21088;-68
2023/06/06 11:31:38;;;;;;;11.05;2.02;;;;;;;34.80;10.22;100009.94;1585566;89;21120;-68
2023/06/06 11:34:10;;;;;;;5.35;2.42;;;;;;;33.73;10.42;100014.77;1583322;89;20997;-68
2023/06/06 11:36:38;;;;;;;4.75;2.30;;;;;;;32.27;10.94;100017.75;1579879;89;21123;-68